Time;durP1;ratioP1;P1;durP2;ratioP2;P2;SDS_P1;SDS_P2;PMS_P1;PMS_P2;Temp;Humidity;BMP_temperature;BMP_pressure;BME280_temperature;BME280_humidity;BME280_pressure;Samples;Min_cycle;Max_cycle;Signal;HPM_P1;HPM_P2
2023/04/20 00:00:10;;;;;;;7.40;3.33;;;7.10;99.90;;;;;;5062587;28;20045;-65
2023/04/20 00:02:37;;;;;;;9.68;3.00;;;7.10;99.90;;;;;;5060457;28;20396;-65
2023/04/20 00:05:06;;;;;;;9.10;3.92;;;7.10;99.90;;;;;;5059810;28;20045;-65
2023/04/20 00:07:32;;;;;;;6.82;3.00;;;7.10;99.90;;;;;;5060052;28;20472;-65
2023/04/20 00:09:57;;;;;;;6.90;3.10;;;7.10;99.90;;;;;;5062281;28;20056;-65
2023/04/20 00:12:23;;;;;;;6.15;2.88;;;7.10;99.90;;;;;;5059231;28;20048;-65
2023/04/20 00:14:48;;;;;;;7.72;3.47;;;7.10;99.90;;;;;;5061673;28;20029;-65
2023/04/20 00:17:14;;;;;;;5.30;3.20;;;7.10;99.90;;;;;;5057377;28;20154;-65
2023/04/20 00:19:40;;;;;;;6.30;3.22;;;7.00;99.90;;;;;;5059450;28;20036;-65
2023/04/20 00:22:05;;;;;;;5.75;3.33;;;7.00;99.90;;;;;;5060707;28;20508;-65
2023/04/20 00:24:31;;;;;;;7.18;3.30;;;7.10;99.90;;;;;;5059481;28;20098;-65
2023/04/20 00:26:56;;;;;;;7.28;3.30;;;7.10;99.90;;;;;;5062150;28;20036;-65
2023/04/20 00:29:22;;;;;;;6.43;3.00;;;7.10;99.90;;;;;;5064428;28;20489;-65
2023/04/20 00:31:48;;;;;;;6.05;3.30;;;7.10;99.90;;;;;;5068968;28;20115;-65
2023/04/20 00:34:14;;;;;;;6.15;3.30;;;7.00;99.90;;;;;;5052310;28;20037;-65
2023/04/20 00:36:40;;;;;;;7.95;3.58;;;7.00;99.90;;;;;;5061054;28;20159;-65
2023/04/20 00:39:06;;;;;;;7.28;3.40;;;7.00;99.90;;;;;;5065875;28;20183;-65
2023/04/20 00:41:31;;;;;;;6.35;3.25;;;7.10;99.90;;;;;;5062734;28;20191;-65
2023/04/20 00:43:57;;;;;;;7.25;3.10;;;7.10;99.90;;;;;;5060973;28;20033;-65
2023/04/20 00:46:23;;;;;;;5.78;3.40;;;7.10;99.90;;;;;;5059396;28;20043;-65
2023/04/20 00:48:53;;;;;;;6.22;3.17;;;7.10;99.90;;;;;;5062213;28;20166;-65
2023/04/20 00:51:20;;;;;;;7.05;3.83;;;7.10;99.90;;;;;;5054909;28;20151;-65
2023/04/20 00:53:45;;;;;;;5.47;3.40;;;7.00;99.90;;;;;;5057015;28;20057;-65
2023/04/20 00:56:13;;;;;;;5.90;3.20;;;7.00;99.90;;;;;;5056606;28;20064;-65
2023/04/20 00:58:40;;;;;;;6.22;3.60;;;7.00;99.90;;;;;;5063204;28;20093;-65
2023/04/20 01:01:06;;;;;;;6.03;3.45;;;7.00;99.90;;;;;;5059753;28;20037;-64
2023/04/20 01:03:32;;;;;;;7.13;3.60;;;7.00;99.90;;;;;;5061813;28;20086;-64
2023/04/20 01:05:57;;;;;;;6.05;3.63;;;7.00;99.90;;;;;;5058148;28;20037;-65
2023/04/20 01:08:26;;;;;;;6.65;3.78;;;7.00;99.90;;;;;;5054912;28;20037;-65
2023/04/20 01:10:55;;;;;;;8.02;3.30;;;6.90;99.90;;;;;;5059429;28;20097;-65
2023/04/20 01:13:21;;;;;;;6.13;3.33;;;6.90;99.90;;;;;;5056125;28;20116;-65
2023/04/20 01:15:46;;;;;;;7.82;3.50;;;6.90;99.90;;;;;;5056610;28;20158;-64
2023/04/20 01:18:12;;;;;;;6.75;3.55;;;6.90;99.90;;;;;;5059976;28;20041;-65
2023/04/20 01:20:38;;;;;;;7.05;3.53;;;6.90;99.90;;;;;;5066933;28;20048;-65
2023/04/20 01:23:04;;;;;;;7.53;3.13;;;6.80;99.90;;;;;;5056560;28;20119;-65
2023/04/20 01:25:29;;;;;;;6.75;3.45;;;6.80;99.90;;;;;;5067808;28;20760;-65
2023/04/20 01:27:55;;;;;;;6.57;3.40;;;6.70;99.90;;;;;;5053573;28;20154;-65
2023/04/20 01:30:21;;;;;;;8.43;3.83;;;6.80;99.90;;;;;;5055847;28;20178;-65
2023/04/20 01:32:46;;;;;;;6.47;3.35;;;6.70;99.90;;;;;;5054253;28;20332;-65
2023/04/20 01:35:12;;;;;;;7.78;3.60;;;6.70;99.90;;;;;;5060000;28;20045;-65
2023/04/20 01:37:39;;;;;;;5.05;3.08;;;6.80;99.90;;;;;;5066895;28;20124;-65
2023/04/20 01:40:08;;;;;;;6.55;3.50;;;6.80;99.90;;;;;;5056920;28;20060;-65
2023/04/20 01:42:34;;;;;;;6.18;3.30;;;6.80;99.90;;;;;;5058296;28;20041;-64
2023/04/20 01:45:00;;;;;;;6.53;3.17;;;6.80;99.90;;;;;;5057494;28;20111;-65
2023/04/20 01:47:25;;;;;;;6.07;3.08;;;6.80;99.90;;;;;;5053046;28;20162;-64
2023/04/20 01:49:51;;;;;;;6.20;3.20;;;6.90;99.90;;;;;;5056941;28;20084;-64
2023/04/20 01:52:16;;;;;;;5.68;3.53;;;6.90;99.90;;;;;;5062967;28;20379;-64
2023/04/20 01:54:42;;;;;;;7.88;3.15;;;7.00;99.90;;;;;;5064590;28;20056;-65
2023/04/20 01:57:07;;;;;;;5.90;2.75;;;7.00;99.90;;;;;;5064512;28;20052;-64
2023/04/20 01:59:33;;;;;;;6.60;3.00;;;7.10;99.90;;;;;;5067555;28;20115;-64
2023/04/20 02:01:58;;;;;;;6.88;3.00;;;7.10;99.90;;;;;;5057356;28;20037;-64
2023/04/20 02:04:24;;;;;;;6.18;3.10;;;7.10;99.90;;;;;;5063647;28;20417;-64
2023/04/20 02:06:50;;;;;;;9.10;2.90;;;7.20;99.90;;;;;;5060583;28;20095;-64
2023/04/20 02:09:15;;;;;;;6.53;3.03;;;7.20;99.90;;;;;;5066676;28;20036;-64
2023/04/20 02:11:41;;;;;;;5.85;2.75;;;7.20;99.90;;;;;;5061383;28;20170;-64
2023/04/20 02:14:07;;;;;;;5.70;2.78;;;7.30;99.90;;;;;;5058986;28;20044;-64
2023/04/20 02:16:34;;;;;;;7.28;2.80;;;7.20;99.90;;;;;;5057453;28;20040;-64
2023/04/20 02:18:59;;;;;;;7.55;3.15;;;7.30;99.90;;;;;;5065233;28;20079;-64
2023/04/20 02:21:26;;;;;;;7.13;3.00;;;7.20;99.90;;;;;;5063163;28;20068;-64
2023/04/20 02:23:52;;;;;;;6.65;2.90;;;7.20;99.90;;;;;;5066897;28;20442;-65
2023/04/20 02:26:18;;;;;;;4.80;2.53;;;7.30;99.90;;;;;;5056017;28;20116;-65
2023/04/20 02:28:43;;;;;;;6.43;3.13;;;7.30;99.90;;;;;;5066263;28;20032;-64
2023/04/20 02:31:09;;;;;;;5.57;2.90;;;7.20;99.90;;;;;;5048859;28;20142;-65
2023/04/20 02:33:35;;;;;;;5.45;2.40;;;7.20;99.90;;;;;;5059838;28;20429;-65
2023/04/20 02:36:01;;;;;;;5.38;2.53;;;7.30;99.90;;;;;;5063022;28;20041;-64
2023/04/20 02:38:26;;;;;;;6.00;2.78;;;7.20;99.90;;;;;;5054432;28;20047;-64
2023/04/20 02:40:52;;;;;;;6.18;2.72;;;7.20;99.90;;;;;;5066491;28;20456;-64
2023/04/20 02:43:17;;;;;;;5.55;2.45;;;7.20;99.90;;;;;;5052832;28;20033;-64
2023/04/20 02:45:43;;;;;;;6.70;2.38;;;7.20;99.90;;;;;;5072865;28;20388;-65
2023/04/20 02:48:09;;;;;;;7.22;2.67;;;7.30;99.90;;;;;;5062276;28;20041;-64
2023/04/20 02:50:35;;;;;;;7.43;2.70;;;7.20;99.90;;;;;;5064234;28;20099;-64
2023/04/20 02:53:00;;;;;;;9.68;2.80;;;7.30;99.90;;;;;;5056167;28;20044;-65
2023/04/20 02:55:26;;;;;;;7.03;2.35;;;7.30;99.90;;;;;;5069248;28;20115;-64
2023/04/20 02:57:51;;;;;;;5.65;2.65;;;7.30;99.90;;;;;;5064617;28;20079;-64
2023/04/20 03:00:17;;;;;;;5.45;2.47;;;7.30;99.90;;;;;;5051173;28;20131;-64
2023/04/20 03:02:43;;;;;;;7.07;2.30;;;7.40;99.90;;;;;;5052987;28;20111;-64
2023/04/20 03:05:09;;;;;;;5.15;2.28;;;7.30;99.90;;;;;;5057194;28;20037;-64
2023/04/20 03:07:34;;;;;;;6.00;2.20;;;7.40;99.90;;;;;;5057156;28;20098;-64
2023/04/20 03:10:00;;;;;;;5.82;2.50;;;7.40;99.90;;;;;;5061537;28;20043;-64
2023/04/20 03:12:25;;;;;;;5.25;2.35;;;7.30;99.90;;;;;;5060070;28;20060;-64
2023/04/20 03:14:51;;;;;;;5.07;2.67;;;7.30;99.90;;;;;;5065958;28;20103;-65
2023/04/20 03:17:17;;;;;;;5.70;2.50;;;7.30;99.90;;;;;;5053436;28;20161;-64
2023/04/20 03:19:42;;;;;;;5.93;2.50;;;7.30;99.90;;;;;;5055147;28;20037;-64
2023/04/20 03:22:08;;;;;;;6.10;2.15;;;7.30;99.90;;;;;;5057228;28;20090;-64
2023/04/20 03:24:34;;;;;;;5.55;2.38;;;7.30;99.90;;;;;;5057563;28;20045;-64
2023/04/20 03:27:00;;;;;;;4.53;2.17;;;7.30;99.90;;;;;;5055875;28;20070;-64
2023/04/20 03:29:26;;;;;;;5.68;2.13;;;7.30;99.90;;;;;;5066288;28;20077;-64
2023/04/20 03:31:51;;;;;;;5.53;2.47;;;7.30;99.90;;;;;;5059164;28;20122;-64
2023/04/20 03:34:17;;;;;;;6.15;2.35;;;7.40;99.90;;;;;;5057940;28;20036;-64
2023/04/20 03:36:42;;;;;;;5.63;2.17;;;7.40;99.90;;;;;;5066618;28;20045;-64
2023/04/20 03:39:08;;;;;;;5.07;2.28;;;7.50;99.90;;;;;;5062160;28;20468;-64
2023/04/20 03:41:34;;;;;;;4.55;2.00;;;7.50;99.90;;;;;;5072644;28;20046;-64
2023/04/20 03:43:59;;;;;;;9.32;2.65;;;7.60;99.90;;;;;;5061140;28;20200;-64
2023/04/20 03:46:25;;;;;;;7.97;2.38;;;7.60;99.90;;;;;;5056927;28;20044;-64
2023/04/20 03:48:51;;;;;;;8.20;2.33;;;7.70;99.90;;;;;;5061266;28;20115;-64
2023/04/20 03:51:16;;;;;;;5.30;2.00;;;7.70;99.90;;;;;;5055150;28;22105;-65
2023/04/20 03:53:42;;;;;;;5.75;2.15;;;7.70;99.90;;;;;;5054027;28;20144;-64
2023/04/20 03:56:08;;;;;;;5.53;2.05;;;7.80;99.90;;;;;;5052305;28;20087;-65
2023/04/20 03:58:33;;;;;;;7.32;2.30;;;7.80;99.90;;;;;;5051762;28;20059;-65
2023/04/20 04:01:06;;;;;;;7.22;2.38;;;7.80;99.90;;;;;;5047504;28;20098;-64
2023/04/20 04:03:33;;;;;;;4.53;1.88;;;7.90;99.90;;;;;;5051246;28;20055;-65
2023/04/20 04:05:58;;;;;;;7.05;2.42;;;7.90;99.90;;;;;;5056304;28;20082;-65
2023/04/20 04:08:25;;;;;;;5.32;2.35;;;7.90;99.90;;;;;;5049574;28;20040;-65
2023/04/20 04:10:51;;;;;;;7.15;2.08;;;7.90;99.90;;;;;;5051947;28;20436;-65
2023/04/20 04:13:16;;;;;;;5.72;2.28;;;8.00;99.90;;;;;;5047994;28;20071;-65
2023/04/20 04:15:42;;;;;;;5.40;2.20;;;8.00;99.90;;;;;;5050232;28;20048;-65
2023/04/20 04:18:08;;;;;;;5.53;2.05;;;8.00;99.90;;;;;;5053206;28;20372;-65
2023/04/20 04:20:33;;;;;;;5.05;1.80;;;8.00;99.90;;;;;;5053793;28;20128;-65
2023/04/20 04:22:59;;;;;;;6.03;1.98;;;8.00;99.90;;;;;;5059612;28;20459;-65
2023/04/20 04:25:24;;;;;;;4.82;1.92;;;8.00;99.90;;;;;;5058258;28;20036;-65
2023/04/20 04:27:50;;;;;;;5.47;2.20;;;8.00;99.90;;;;;;5055161;28;20451;-65
2023/04/20 04:30:18;;;;;;;4.90;2.20;;;8.00;99.90;;;;;;5052058;28;20040;-65
2023/04/20 04:32:45;;;;;;;6.53;2.30;;;8.00;99.90;;;;;;5057055;28;20045;-65
2023/04/20 04:35:11;;;;;;;4.78;2.20;;;8.00;99.90;;;;;;5059741;28;20395;-65
2023/04/20 04:37:37;;;;;;;7.15;2.40;;;7.90;99.90;;;;;;5055260;28;20404;-65
2023/04/20 04:40:06;;;;;;;4.80;2.20;;;8.00;99.90;;;;;;5060503;28;20048;-65
2023/04/20 04:42:33;;;;;;;5.65;2.25;;;7.90;99.90;;;;;;5068919;28;20048;-66
2023/04/20 04:45:01;;;;;;;4.97;2.50;;;7.90;99.90;;;;;;5058903;28;20059;-65
2023/04/20 04:47:28;;;;;;;5.18;2.30;;;7.80;99.90;;;;;;5059168;28;20483;-65
2023/04/20 04:49:54;;;;;;;6.95;2.20;;;7.80;99.90;;;;;;5062939;28;20334;-65
2023/04/20 04:52:20;;;;;;;5.97;2.30;;;7.80;99.90;;;;;;5057550;28;20099;-65
2023/04/20 04:54:46;;;;;;;5.43;2.55;;;7.70;99.90;;;;;;5062340;28;20486;-64
2023/04/20 04:57:11;;;;;;;6.13;2.60;;;7.70;99.90;;;;;;5062933;28;20056;-65
2023/04/20 04:59:37;;;;;;;5.45;2.17;;;7.70;99.90;;;;;;5059856;28;20048;-65
2023/04/20 05:02:03;;;;;;;5.38;2.38;;;7.60;99.90;;;;;;5054975;28;20037;-63
2023/04/20 05:04:28;;;;;;;7.93;2.25;;;7.60;99.90;;;;;;5073420;28;20050;-63
2023/04/20 05:06:54;;;;;;;4.40;2.13;;;7.50;99.90;;;;;;5076040;28;20060;-63
2023/04/20 05:09:19;;;;;;;6.97;2.35;;;7.50;99.90;;;;;;5066941;28;20356;-62
2023/04/20 05:11:45;;;;;;;5.85;2.30;;;7.50;99.90;;;;;;5062600;28;20048;-63
2023/04/20 05:14:10;;;;;;;5.25;2.30;;;7.50;99.90;;;;;;5067032;28;20583;-63
2023/04/20 05:16:36;;;;;;;5.72;2.60;;;7.50;99.90;;;;;;5061855;28;20032;-62
2023/04/20 05:19:02;;;;;;;5.55;2.20;;;7.40;99.90;;;;;;5064933;28;20059;-63
2023/04/20 05:21:28;;;;;;;6.15;2.47;;;7.40;99.90;;;;;;5060714;28;20044;-63
2023/04/20 05:23:54;;;;;;;5.38;2.50;;;7.40;99.90;;;;;;5062362;28;20048;-63
2023/04/20 05:26:19;;;;;;;5.35;2.53;;;7.40;99.90;;;;;;5051973;28;20495;-63
2023/04/20 05:28:45;;;;;;;5.47;2.53;;;7.40;99.90;;;;;;5055782;28;20139;-62
2023/04/20 05:31:10;;;;;;;6.40;2.60;;;7.40;99.90;;;;;;5054377;28;20079;-63
2023/04/20 05:33:36;;;;;;;5.85;2.70;;;7.50;99.90;;;;;;5055270;28;20088;-63
2023/04/20 05:36:02;;;;;;;5.43;2.60;;;7.50;99.90;;;;;;5060903;28;20476;-63
2023/04/20 05:38:28;;;;;;;7.82;2.63;;;7.50;99.90;;;;;;5058926;28;20076;-62
2023/04/20 05:40:55;;;;;;;7.20;2.95;;;7.50;99.90;;;;;;5064091;28;20407;-63
2023/04/20 05:43:20;;;;;;;6.53;2.90;;;7.50;99.90;;;;;;5061986;28;20385;-63
2023/04/20 05:45:47;;;;;;;5.45;2.58;;;7.60;99.90;;;;;;5069094;28;20040;-63
2023/04/20 05:48:13;;;;;;;6.55;2.80;;;7.50;99.90;;;;;;5062243;28;20033;-63
2023/04/20 05:50:39;;;;;;;6.03;2.40;;;7.50;99.90;;;;;;5062649;28;20495;-63
2023/04/20 05:53:04;;;;;;;6.65;2.42;;;7.50;99.90;;;;;;5063591;28;20037;-63
2023/04/20 05:55:30;;;;;;;5.38;2.60;;;7.50;99.90;;;;;;5053117;28;20414;-63
2023/04/20 05:57:55;;;;;;;7.75;2.80;;;7.50;99.90;;;;;;5060360;28;20098;-63
2023/04/20 06:00:21;;;;;;;6.60;2.50;;;7.50;99.90;;;;;;5054028;28;20040;-63
2023/04/20 06:02:47;;;;;;;4.88;2.33;;;7.50;99.90;;;;;;5056859;28;20044;-63
2023/04/20 06:05:12;;;;;;;6.32;2.20;;;7.50;99.90;;;;;;5068858;28;20125;-63
2023/04/20 06:07:38;;;;;;;4.82;2.30;;;7.60;99.90;;;;;;5057313;28;20029;-63
2023/04/20 06:10:05;;;;;;;7.07;2.40;;;7.60;99.90;;;;;;5070545;28;20048;-63
2023/04/20 06:12:30;;;;;;;6.25;2.40;;;7.60;99.90;;;;;;5055742;28;20495;-63
2023/04/20 06:14:59;;;;;;;5.97;2.20;;;7.60;99.90;;;;;;5051303;28;20124;-63
2023/04/20 06:17:25;;;;;;;5.93;2.42;;;7.60;99.90;;;;;;5065242;28;20040;-63
2023/04/20 06:19:51;;;;;;;6.07;2.35;;;7.50;99.90;;;;;;5061883;28;20380;-63
2023/04/20 06:22:18;;;;;;;4.82;2.17;;;7.60;99.90;;;;;;5060477;28;20041;-63
2023/04/20 06:24:43;;;;;;;6.38;2.42;;;7.50;99.90;;;;;;5053175;28;20044;-63
2023/04/20 06:27:09;;;;;;;5.70;2.50;;;7.50;99.90;;;;;;5064576;28;20040;-63
2023/04/20 06:29:35;;;;;;;6.25;3.08;;;7.40;99.90;;;;;;5064747;28;20049;-64
2023/04/20 06:32:01;;;;;;;5.80;2.78;;;7.40;99.90;;;;;;5050871;28;20037;-65
2023/04/20 06:34:26;;;;;;;7.68;3.22;;;7.40;99.90;;;;;;5058286;28;20488;-63
2023/04/20 06:36:52;;;;;;;5.72;2.55;;;7.20;99.90;;;;;;5065559;28;20047;-63
2023/04/20 06:39:18;;;;;;;7.22;2.90;;;7.30;99.90;;;;;;5056066;28;20036;-63
2023/04/20 06:41:44;;;;;;;7.28;3.00;;;7.20;99.90;;;;;;5050558;28;20562;-63
2023/04/20 06:44:09;;;;;;;7.30;2.67;;;7.10;99.90;;;;;;5062880;28;20059;-63
2023/04/20 06:46:35;;;;;;;9.10;3.25;;;7.10;99.90;;;;;;5062264;28;20044;-63
2023/04/20 06:49:01;;;;;;;8.10;2.90;;;7.00;99.90;;;;;;5066529;28;20072;-63
2023/04/20 06:51:28;;;;;;;6.47;3.20;;;6.90;99.90;;;;;;5057760;28;20178;-64
2023/04/20 06:53:54;;;;;;;7.80;3.38;;;6.90;99.90;;;;;;5054706;28;20048;-63
2023/04/20 06:56:20;;;;;;;7.00;3.03;;;6.80;99.90;;;;;;5051372;28;20044;-63
2023/04/20 06:58:46;;;;;;;7.40;3.47;;;6.70;99.90;;;;;;5066950;28;20052;-63
2023/04/20 07:01:11;;;;;;;8.50;3.30;;;6.70;99.90;;;;;;5068596;28;20117;-63
2023/04/20 07:03:37;;;;;;;6.80;3.35;;;6.70;99.90;;;;;;5053792;28;20044;-63
2023/04/20 07:06:03;;;;;;;8.05;3.08;;;6.60;99.90;;;;;;5060429;28;20574;-63
2023/04/20 07:08:29;;;;;;;8.75;3.20;;;6.60;99.90;;;;;;5065477;28;20067;-63
2023/04/20 07:10:55;;;;;;;8.98;3.20;;;6.50;99.90;;;;;;5062270;28;20375;-63
2023/04/20 07:13:20;;;;;;;8.15;3.70;;;6.60;99.90;;;;;;5053862;28;20181;-63
2023/04/20 07:15:46;;;;;;;5.97;3.55;;;6.60;99.90;;;;;;5058687;28;20496;-64
2023/04/20 07:18:11;;;;;;;6.03;3.30;;;6.60;99.90;;;;;;5067388;28;20443;-63
2023/04/20 07:20:37;;;;;;;6.07;3.53;;;6.60;99.90;;;;;;5060164;28;20040;-63
2023/04/20 07:23:02;;;;;;;8.55;3.58;;;6.60;99.90;;;;;;5059899;28;20076;-63
2023/04/20 07:25:30;;;;;;;6.90;3.35;;;6.60;99.90;;;;;;5049092;28;20392;-63
2023/04/20 07:27:56;;;;;;;6.80;3.30;;;6.60;99.90;;;;;;5060533;28;20049;-63
2023/04/20 07:30:21;;;;;;;7.53;3.28;;;6.60;99.90;;;;;;5068641;28;20129;-63
2023/04/20 07:32:48;;;;;;;6.80;3.17;;;6.60;99.90;;;;;;5060908;28;20400;-63
2023/04/20 07:35:13;;;;;;;8.48;3.85;;;6.60;99.90;;;;;;5070404;28;20064;-63
2023/04/20 07:37:39;;;;;;;7.85;3.60;;;6.70;99.90;;;;;;5062519;28;20410;-63
2023/04/20 07:40:05;;;;;;;7.25;3.50;;;6.70;99.90;;;;;;5061000;28;20057;-63
2023/04/20 07:42:33;;;;;;;6.93;3.38;;;6.80;99.90;;;;;;5049467;28;20526;-64
2023/04/20 07:44:58;;;;;;;7.30;3.50;;;6.90;99.90;;;;;;5067462;28;20044;-63
2023/04/20 07:47:24;;;;;;;7.10;3.40;;;7.00;99.90;;;;;;5069862;28;20340;-63
2023/04/20 07:49:50;;;;;;;6.47;3.33;;;7.10;99.90;;;;;;5066440;28;20037;-63
2023/04/20 07:52:17;;;;;;;7.32;3.40;;;7.20;99.90;;;;;;5060853;28;20044;-63
2023/04/20 07:54:43;;;;;;;8.30;3.38;;;7.20;99.90;;;;;;5068271;28;20072;-63
2023/04/20 07:57:09;;;;;;;7.53;3.80;;;7.20;99.90;;;;;;5053529;28;20048;-64
2023/04/20 07:59:34;;;;;;;8.55;3.88;;;7.10;99.90;;;;;;5069109;28;20044;-63
2023/04/20 08:02:02;;;;;;;7.97;3.55;;;7.10;99.90;;;;;;5058983;28;20036;-63
2023/04/20 08:04:27;;;;;;;7.68;3.40;;;7.10;99.90;;;;;;5066457;28;20047;-63
2023/04/20 08:06:53;;;;;;;8.98;3.58;;;7.10;99.90;;;;;;5070449;28;20380;-63
2023/04/20 08:09:19;;;;;;;7.30;3.55;;;7.20;99.90;;;;;;5060165;28;20041;-63
2023/04/20 08:11:45;;;;;;;6.57;3.65;;;7.20;99.90;;;;;;5064246;28;20092;-63
2023/04/20 08:14:11;;;;;;;7.43;3.70;;;7.30;99.90;;;;;;5066581;28;20077;-63
2023/04/20 08:16:37;;;;;;;5.35;3.40;;;7.30;99.90;;;;;;5067193;28;20032;-63
2023/04/20 08:19:08;;;;;;;8.98;3.83;;;7.40;99.90;;;;;;5069386;28;20466;-63
2023/04/20 08:21:38;;;;;;;8.05;3.78;;;7.40;99.90;;;;;;5069397;28;20090;-64
2023/04/20 08:24:04;;;;;;;7.43;3.72;;;7.60;99.90;;;;;;5067964;28;20041;-63
2023/04/20 08:26:31;;;;;;;6.75;3.90;;;7.60;99.90;;;;;;5071388;28;20111;-63
2023/04/20 08:28:56;;;;;;;7.50;4.18;;;7.70;99.90;;;;;;5070516;28;20037;-63
2023/04/20 08:31:22;;;;;;;9.68;4.10;;;7.90;99.90;;;;;;5065031;28;20435;-64
2023/04/20 08:33:48;;;;;;;8.18;4.80;;;8.10;99.90;;;;;;5068199;28;20040;-64
2023/04/20 08:36:14;;;;;;;8.45;4.13;;;8.30;99.90;;;;;;5069370;28;20040;-63
2023/04/20 08:38:39;;;;;;;7.90;4.22;;;8.40;99.90;;;;;;5066281;28;20048;-64
2023/04/20 08:41:05;;;;;;;7.97;4.47;;;8.40;99.90;;;;;;5070265;28;20055;-63
2023/04/20 08:43:31;;;;;;;8.77;4.32;;;8.40;99.90;;;;;;5068864;28;20032;-64
2023/04/20 08:45:58;;;;;;;9.40;4.70;;;8.40;99.90;;;;;;5057278;28;20404;-63
2023/04/20 08:48:27;;;;;;;6.88;4.25;;;8.40;99.90;;;;;;5062072;28;20045;-64
2023/04/20 08:50:53;;;;;;;8.63;4.50;;;8.50;99.90;;;;;;5060894;28;20508;-64
2023/04/20 08:53:19;;;;;;;7.55;4.45;;;8.50;99.90;;;;;;5064984;28;20128;-64
2023/04/20 08:55:47;;;;;;;8.80;4.28;;;8.50;99.90;;;;;;5064972;28;20143;-64
2023/04/20 08:58:12;;;;;;;8.07;4.50;;;8.50;99.90;;;;;;5068565;28;20369;-64
2023/04/20 09:00:48;;;;;;;7.70;4.07;;;8.50;99.90;;;;;;5069854;28;20090;-64
2023/04/20 09:03:13;;;;;;;10.38;4.25;;;8.40;99.90;;;;;;5058171;28;20059;-64
2023/04/20 09:05:40;;;;;;;7.32;4.40;;;8.50;99.90;;;;;;5051579;28;20123;-64
2023/04/20 09:08:07;;;;;;;7.25;4.35;;;8.50;99.90;;;;;;5059471;28;20048;-64
2023/04/20 09:10:41;;;;;;;9.13;4.25;;;8.60;99.90;;;;;;5061504;28;20049;-64
2023/04/20 09:13:07;;;;;;;8.43;4.73;;;8.70;99.90;;;;;;5051644;28;20045;-64
2023/04/20 09:15:33;;;;;;;8.93;4.95;;;8.90;99.90;;;;;;5060740;28;20302;-64
2023/04/20 09:17:58;;;;;;;9.98;4.78;;;8.90;99.90;;;;;;5066948;28;20043;-65
2023/04/20 09:20:33;;;;;;;7.93;4.50;;;9.00;99.90;;;;;;5070527;28;20487;-64
2023/04/20 09:23:19;;;;;;;11.15;4.88;;;9.10;99.90;;;;;;5063338;28;20445;-64
2023/04/20 09:25:51;;;;;;;8.68;4.63;;;9.00;99.90;;;;;;5072099;28;20227;-64
2023/04/20 09:28:17;;;;;;;8.90;4.85;;;8.90;99.90;;;;;;5063807;28;20071;-64
2023/04/20 09:30:44;;;;;;;7.63;4.22;;;8.90;99.90;;;;;;5069454;28;20032;-65
2023/04/20 09:33:13;;;;;;;8.65;4.70;;;9.20;99.90;;;;;;5054720;28;20204;-66
2023/04/20 09:35:40;;;;;;;8.00;4.80;;;9.30;99.90;;;;;;5050315;28;20049;-66
2023/04/20 09:38:07;;;;;;;7.18;4.38;;;9.20;99.90;;;;;;5062872;28;20047;-65
2023/04/20 09:40:34;;;;;;;11.20;4.40;;;9.10;99.90;;;;;;5057314;28;20111;-64
2023/04/20 09:43:12;;;;;;;9.52;4.50;;;9.10;99.90;;;;;;5066661;28;20477;-64
2023/04/20 09:45:38;;;;;;;8.25;4.95;;;9.10;99.90;;;;;;5065205;28;20052;-64
2023/04/20 09:48:05;;;;;;;7.82;4.30;;;8.90;99.90;;;;;;5062945;28;20041;-66
2023/04/20 09:50:34;;;;;;;8.30;4.68;;;9.00;99.90;;;;;;5066031;28;20113;-66
2023/04/20 09:53:01;;;;;;;10.88;4.80;;;9.00;99.90;;;;;;5062155;28;20062;-66
2023/04/20 09:55:29;;;;;;;8.90;4.93;;;9.00;99.90;;;;;;5070114;28;20475;-66
2023/04/20 09:57:56;;;;;;;8.80;4.88;;;9.10;99.90;;;;;;5063633;28;20048;-66
2023/04/20 10:00:22;;;;;;;9.30;5.22;;;9.20;99.90;;;;;;5067541;28;20621;-65
2023/04/20 10:02:47;;;;;;;8.07;4.97;;;9.30;99.90;;;;;;5060274;28;20480;-66
2023/04/20 10:05:14;;;;;;;9.73;4.80;;;9.50;99.90;;;;;;5066782;28;20032;-66
2023/04/20 10:07:40;;;;;;;8.73;4.70;;;9.70;99.90;;;;;;5061673;28;20477;-67
2023/04/20 10:10:12;;;;;;;8.50;5.13;;;9.90;99.90;;;;;;5064730;28;20139;-65
2023/04/20 10:12:55;;;;;;;8.80;5.43;;;9.90;99.90;;;;;;5059777;28;20510;-64
2023/04/20 10:15:21;;;;;;;8.95;4.85;;;9.90;99.90;;;;;;5066029;28;21746;-65
2023/04/20 10:17:47;;;;;;;10.15;5.43;;;10.00;99.90;;;;;;5067290;28;20032;-62
2023/04/20 10:20:24;;;;;;;9.93;5.03;;;10.00;99.90;;;;;;5067186;28;20044;-64
2023/04/20 10:22:51;;;;;;;10.90;5.35;;;10.10;99.90;;;;;;5065439;28;20040;-64
2023/04/20 10:25:20;;;;;;;9.70;5.55;;;10.30;99.90;;;;;;5054325;28;20449;-66
2023/04/20 10:28:11;;;;;;;9.50;5.65;;;10.60;99.90;;;;;;5063785;28;20511;-65
2023/04/20 10:30:49;;;;;;;9.45;5.45;;;10.90;99.90;;;;;;5069106;28;20052;-65
2023/04/20 10:33:16;;;;;;;8.48;5.40;;;11.10;99.90;;;;;;5065236;28;20044;-66
2023/04/20 10:35:53;;;;;;;10.25;5.32;;;11.00;99.90;;;;;;5070423;28;20052;-66
2023/04/20 10:38:33;;;;;;;7.95;5.15;;;11.00;99.90;;;;;;5067550;28;20041;-65
2023/04/20 10:41:06;;;;;;;10.55;6.05;;;11.00;99.90;;;;;;5069575;28;20151;-66
2023/04/20 10:43:34;;;;;;;11.48;5.82;;;11.10;99.90;;;;;;5053118;28;20053;-66
2023/04/20 10:45:59;;;;;;;9.88;6.13;;;11.20;99.90;;;;;;5050777;28;20108;-67
2023/04/20 10:48:25;;;;;;;11.25;5.78;;;11.40;99.90;;;;;;5058249;28;20551;-66
2023/04/20 10:50:50;;;;;;;9.93;5.80;;;11.40;99.90;;;;;;5063520;28;20040;-65
2023/04/20 10:53:20;;;;;;;9.40;6.18;;;11.30;99.90;;;;;;5066679;28;20106;-65
2023/04/20 10:55:45;;;;;;;9.40;5.80;;;11.50;99.90;;;;;;5065923;28;20131;-65
2023/04/20 10:58:24;;;;;;;9.18;5.97;;;11.50;99.90;;;;;;5067882;28;20124;-65
2023/04/20 11:01:00;;;;;;;10.25;5.80;;;11.50;99.90;;;;;;5066375;28;20036;-66
2023/04/20 11:03:28;;;;;;;8.95;5.53;;;11.30;99.90;;;;;;5061652;28;20051;-67
2023/04/20 11:05:56;;;;;;;10.50;6.40;;;11.20;99.90;;;;;;5069104;28;20039;-66
2023/04/20 11:08:21;;;;;;;10.00;5.90;;;11.20;99.90;;;;;;5063868;28;20044;-66
2023/04/20 11:10:47;;;;;;;8.73;6.20;;;11.20;99.90;;;;;;5068781;28;20109;-66
2023/04/20 11:13:24;;;;;;;8.13;6.10;;;11.30;99.90;;;;;;5062098;28;20345;-66
2023/04/20 11:15:50;;;;;;;8.75;6.25;;;11.50;99.90;;;;;;5061430;28;20044;-65
2023/04/20 11:18:17;;;;;;;9.43;6.25;;;11.70;99.90;;;;;;5066309;28;20094;-66
2023/04/20 11:20:55;;;;;;;10.55;6.90;;;11.80;99.90;;;;;;5067886;28;20064;-66
2023/04/20 11:23:22;;;;;;;10.43;6.55;;;11.70;99.90;;;;;;5066532;28;20177;-65
2023/04/20 11:25:57;;;;;;;9.00;6.53;;;11.70;99.90;;;;;;5062705;28;20037;-65
2023/04/20 11:28:24;;;;;;;10.30;7.15;;;11.70;99.90;;;;;;5066477;28;20037;-65
2023/04/20 11:30:51;;;;;;;8.88;6.43;;;11.70;99.90;;;;;;5065766;28;20471;-66
2023/04/20 11:33:32;;;;;;;11.07;7.57;;;11.60;99.90;;;;;;5064315;28;20270;-65
2023/04/20 11:35:59;;;;;;;11.30;6.95;;;11.70;99.90;;;;;;5063679;28;20167;-66
2023/04/20 11:38:27;;;;;;;9.73;7.15;;;11.90;99.90;;;;;;5061894;28;20040;-65
2023/04/20 11:40:53;;;;;;;10.55;6.82;;;11.90;99.90;;;;;;5065613;28;20060;-64
2023/04/20 11:43:19;;;;;;;9.50;6.57;;;12.00;99.90;;;;;;5066079;28;20056;-65
2023/04/20 11:45:44;;;;;;;10.63;6.40;;;12.20;99.90;;;;;;5062323;28;20062;-65
2023/04/20 11:48:10;;;;;;;9.20;5.70;;;12.30;99.90;;;;;;5066083;28;20036;-65
2023/04/20 11:50:36;;;;;;;8.20;6.20;;;12.40;99.90;;;;;;5065296;28;20123;-65
2023/04/20 11:53:02;;;;;;;10.85;6.40;;;12.50;99.90;;;;;;5062088;28;20526;-65
2023/04/20 11:55:27;;;;;;;10.00;6.85;;;12.60;99.90;;;;;;5063486;28;20124;-65
2023/04/20 11:57:53;;;;;;;8.85;6.45;;;12.80;99.90;;;;;;5059875;28;20048;-65
2023/04/20 12:00:19;;;;;;;9.80;6.50;;;12.70;99.90;;;;;;5059131;28;20037;-65
2023/04/20 12:02:44;;;;;;;11.27;6.88;;;12.40;99.90;;;;;;5063041;28;20505;-66
2023/04/20 12:05:10;;;;;;;9.32;6.72;;;12.20;99.90;;;;;;5067882;28;20048;-65
2023/04/20 12:07:36;;;;;;;10.95;7.18;;;12.00;99.90;;;;;;5062872;28;20040;-64
2023/04/20 12:10:02;;;;;;;8.82;7.10;;;11.80;99.90;;;;;;5063289;28;20049;-64
2023/04/20 12:12:28;;;;;;;10.13;7.00;;;11.90;99.90;;;;;;5057204;28;20161;-65
2023/04/20 12:14:54;;;;;;;11.75;6.65;;;12.00;99.90;;;;;;5068056;28;20052;-64
2023/04/20 12:17:20;;;;;;;11.20;7.55;;;12.20;99.90;;;;;;5058191;28;20091;-64
2023/04/20 12:19:46;;;;;;;9.98;6.90;;;12.30;99.90;;;;;;5064875;28;20127;-65
2023/04/20 12:22:12;;;;;;;10.88;7.50;;;12.30;99.90;;;;;;5054977;28;20079;-64
2023/04/20 12:24:37;;;;;;;9.85;6.20;;;12.40;99.90;;;;;;5062515;28;20068;-67
2023/04/20 12:27:04;;;;;;;10.10;6.57;;;12.30;99.90;;;;;;5066061;28;20052;-64
2023/04/20 12:29:31;;;;;;;9.77;6.60;;;12.30;99.90;;;;;;5065496;28;20051;-64
2023/04/20 12:31:57;;;;;;;8.95;5.97;;;12.50;99.90;;;;;;5069068;28;20128;-64
2023/04/20 12:34:23;;;;;;;9.10;6.05;;;12.70;99.90;;;;;;5064575;28;20115;-65
2023/04/20 12:36:49;;;;;;;8.88;6.22;;;12.80;99.90;;;;;;5059062;28;20045;-65
2023/04/20 12:39:14;;;;;;;8.98;6.38;;;12.90;99.90;;;;;;5063304;28;20033;-65
2023/04/20 12:41:40;;;;;;;8.73;6.65;;;13.00;99.90;;;;;;5065566;28;20044;-66
2023/04/20 12:44:06;;;;;;;8.73;6.53;;;13.00;99.90;;;;;;5066458;28;20250;-65
2023/04/20 12:46:31;;;;;;;9.40;6.85;;;12.90;99.90;;;;;;5065884;28;20087;-66
2023/04/20 12:48:57;;;;;;;10.70;7.70;;;12.80;99.90;;;;;;5064599;28;20045;-66